sensor_id;sensor_type;location;lat;lon;timestamp;P1;durP1;ratioP1;P2;durP2;ratioP2
64601;SDS011;68371;42.630;23.192;2023-07-31T00:02:25;4.78;;;2.88;;
64601;SDS011;68371;42.630;23.192;2023-07-31T00:04:52;7.47;;;3.20;;
64601;SDS011;68371;42.630;23.192;2023-07-31T00:07:19;5.85;;;2.80;;
64601;SDS011;68371;42.630;23.192;2023-07-31T00:09:46;5.82;;;2.70;;
64601;SDS011;68371;42.630;23.192;2023-07-31T00:12:14;3.50;;;2.83;;
64601;SDS011;68371;42.630;23.192;2023-07-31T00:14:41;4.32;;;3.00;;
64601;SDS011;68371;42.630;23.192;2023-07-31T00:17:08;5.00;;;3.22;;
64601;SDS011;68371;42.630;23.192;2023-07-31T00:19:35;4.72;;;3.55;;
64601;SDS011;68371;42.630;23.192;2023-07-31T00:22:01;4.75;;;3.55;;
64601;SDS011;68371;42.630;23.192;2023-07-31T00:24:28;4.80;;;3.50;;
64601;SDS011;68371;42.630;23.192;2023-07-31T00:26:55;5.20;;;3.63;;
64601;SDS011;68371;42.630;23.192;2023-07-31T00:29:23;6.70;;;3.42;;
64601;SDS011;68371;42.630;23.192;2023-07-31T00:31:50;6.53;;;3.95;;
64601;SDS011;68371;42.630;23.192;2023-07-31T00:34:17;6.78;;;3.50;;
64601;SDS011;68371;42.630;23.192;2023-07-31T00:36:43;6.00;;;3.80;;
64601;SDS011;68371;42.630;23.192;2023-07-31T00:39:10;6.07;;;3.80;;
64601;SDS011;68371;42.630;23.192;2023-07-31T00:41:37;5.03;;;3.60;;
64601;SDS011;68371;42.630;23.192;2023-07-31T00:44:04;6.68;;;3.97;;
64601;SDS011;68371;42.630;23.192;2023-07-31T00:46:32;6.50;;;3.58;;
64601;SDS011;68371;42.630;23.192;2023-07-31T00:48:59;8.10;;;3.92;;
64601;SDS011;68371;42.630;23.192;2023-07-31T00:51:25;14.95;;;3.88;;
64601;SDS011;68371;42.630;23.192;2023-07-31T00:53:52;6.35;;;3.47;;
64601;SDS011;68371;42.630;23.192;2023-07-31T00:56:20;8.32;;;3.70;;
64601;SDS011;68371;42.630;23.192;2023-07-31T00:58:48;4.30;;;3.90;;
64601;SDS011;68371;42.630;23.192;2023-07-31T01:01:14;5.03;;;4.03;;
64601;SDS011;68371;42.630;23.192;2023-07-31T01:03:43;7.15;;;4.10;;
64601;SDS011;68371;42.630;23.192;2023-07-31T01:06:13;11.45;;;4.35;;
64601;SDS011;68371;42.630;23.192;2023-07-31T01:08:42;6.05;;;4.25;;
64601;SDS011;68371;42.630;23.192;2023-07-31T01:11:19;4.28;;;3.72;;
64601;SDS011;68371;42.630;23.192;2023-07-31T01:13:52;10.20;;;5.28;;
64601;SDS011;68371;42.630;23.192;2023-07-31T01:16:20;10.88;;;5.40;;
64601;SDS011;68371;42.630;23.192;2023-07-31T01:18:49;6.68;;;5.47;;
64601;SDS011;68371;42.630;23.192;2023-07-31T01:21:21;9.15;;;7.53;;
64601;SDS011;68371;42.630;23.192;2023-07-31T01:24:05;11.38;;;7.55;;
64601;SDS011;68371;42.630;23.192;2023-07-31T01:26:53;10.52;;;8.00;;
64601;SDS011;68371;42.630;23.192;2023-07-31T01:29:26;9.35;;;8.00;;
64601;SDS011;68371;42.630;23.192;2023-07-31T01:31:58;9.90;;;8.25;;
64601;SDS011;68371;42.630;23.192;2023-07-31T01:34:29;12.55;;;8.85;;
64601;SDS011;68371;42.630;23.192;2023-07-31T01:36:57;12.10;;;7.97;;
64601;SDS011;68371;42.630;23.192;2023-07-31T01:39:24;12.25;;;8.95;;
64601;SDS011;68371;42.630;23.192;2023-07-31T01:41:52;14.60;;;10.13;;
64601;SDS011;68371;42.630;23.192;2023-07-31T01:44:18;13.88;;;10.18;;
64601;SDS011;68371;42.630;23.192;2023-07-31T01:46:46;15.32;;;12.30;;
64601;SDS011;68371;42.630;23.192;2023-07-31T01:49:13;13.88;;;11.82;;
64601;SDS011;68371;42.630;23.192;2023-07-31T01:51:39;13.95;;;11.88;;
64601;SDS011;68371;42.630;23.192;2023-07-31T01:54:06;15.75;;;12.73;;
64601;SDS011;68371;42.630;23.192;2023-07-31T01:56:33;18.77;;;14.48;;
64601;SDS011;68371;42.630;23.192;2023-07-31T01:59:01;19.42;;;16.42;;
64601;SDS011;68371;42.630;23.192;2023-07-31T02:01:27;20.48;;;17.13;;
64601;SDS011;68371;42.630;23.192;2023-07-31T02:03:54;20.33;;;16.23;;
64601;SDS011;68371;42.630;23.192;2023-07-31T02:06:21;23.10;;;18.00;;
64601;SDS011;68371;42.630;23.192;2023-07-31T02:08:47;18.38;;;15.20;;
64601;SDS011;68371;42.630;23.192;2023-07-31T02:11:14;18.35;;;15.13;;
64601;SDS011;68371;42.630;23.192;2023-07-31T02:13:41;20.40;;;16.75;;
64601;SDS011;68371;42.630;23.192;2023-07-31T02:16:09;20.25;;;17.05;;
64601;SDS011;68371;42.630;23.192;2023-07-31T02:18:36;22.13;;;17.20;;
64601;SDS011;68371;42.630;23.192;2023-07-31T02:21:03;20.25;;;16.65;;
64601;SDS011;68371;42.630;23.192;2023-07-31T02:23:29;22.58;;;18.13;;
64601;SDS011;68371;42.630;23.192;2023-07-31T02:25:56;21.98;;;18.00;;
64601;SDS011;68371;42.630;23.192;2023-07-31T02:28:23;23.73;;;18.60;;
64601;SDS011;68371;42.630;23.192;2023-07-31T02:30:50;23.20;;;18.73;;
64601;SDS011;68371;42.630;23.192;2023-07-31T02:33:18;23.05;;;16.70;;
64601;SDS011;68371;42.630;23.192;2023-07-31T02:35:45;21.08;;;16.88;;
64601;SDS011;68371;42.630;23.192;2023-07-31T02:38:12;21.08;;;17.02;;
64601;SDS011;68371;42.630;23.192;2023-07-31T02:40:39;20.40;;;17.10;;
64601;SDS011;68371;42.630;23.192;2023-07-31T02:43:06;21.35;;;17.02;;
64601;SDS011;68371;42.630;23.192;2023-07-31T02:45:33;20.08;;;16.60;;
64601;SDS011;68371;42.630;23.192;2023-07-31T02:48:00;22.15;;;17.33;;
64601;SDS011;68371;42.630;23.192;2023-07-31T02:50:28;21.13;;;17.08;;
64601;SDS011;68371;42.630;23.192;2023-07-31T02:52:55;22.48;;;17.15;;
64601;SDS011;68371;42.630;23.192;2023-07-31T02:55:22;23.13;;;18.60;;
64601;SDS011;68371;42.630;23.192;2023-07-31T02:57:48;22.85;;;18.15;;
64601;SDS011;68371;42.630;23.192;2023-07-31T03:00:17;24.00;;;19.55;;
64601;SDS011;68371;42.630;23.192;2023-07-31T03:02:44;22.10;;;18.50;;
64601;SDS011;68371;42.630;23.192;2023-07-31T03:05:10;23.15;;;18.20;;
64601;SDS011;68371;42.630;23.192;2023-07-31T03:07:38;22.42;;;17.52;;
64601;SDS011;68371;42.630;23.192;2023-07-31T03:10:05;20.85;;;17.80;;
64601;SDS011;68371;42.630;23.192;2023-07-31T03:12:33;28.10;;;19.05;;
64601;SDS011;68371;42.630;23.192;2023-07-31T03:15:00;22.80;;;18.45;;
64601;SDS011;68371;42.630;23.192;2023-07-31T03:17:27;26.02;;;19.90;;
64601;SDS011;68371;42.630;23.192;2023-07-31T03:19:54;21.90;;;17.70;;
64601;SDS011;68371;42.630;23.192;2023-07-31T03:22:20;26.08;;;19.83;;
64601;SDS011;68371;42.630;23.192;2023-07-31T03:24:48;24.00;;;19.55;;
64601;SDS011;68371;42.630;23.192;2023-07-31T03:27:15;28.02;;;20.15;;
64601;SDS011;68371;42.630;23.192;2023-07-31T03:29:42;26.75;;;19.13;;
64601;SDS011;68371;42.630;23.192;2023-07-31T03:32:08;25.25;;;20.48;;
64601;SDS011;68371;42.630;23.192;2023-07-31T03:34:35;28.45;;;20.85;;
64601;SDS011;68371;42.630;23.192;2023-07-31T03:37:03;26.65;;;20.52;;
64601;SDS011;68371;42.630;23.192;2023-07-31T03:39:30;26.13;;;19.38;;
64601;SDS011;68371;42.630;23.192;2023-07-31T03:41:58;27.25;;;21.13;;
64601;SDS011;68371;42.630;23.192;2023-07-31T03:44:25;25.83;;;20.02;;
64601;SDS011;68371;42.630;23.192;2023-07-31T03:46:52;29.35;;;20.02;;
64601;SDS011;68371;42.630;23.192;2023-07-31T03:49:18;27.60;;;19.83;;
64601;SDS011;68371;42.630;23.192;2023-07-31T03:51:45;25.33;;;17.45;;
64601;SDS011;68371;42.630;23.192;2023-07-31T03:54:12;27.77;;;19.73;;
64601;SDS011;68371;42.630;23.192;2023-07-31T03:56:39;28.33;;;20.08;;
64601;SDS011;68371;42.630;23.192;2023-07-31T03:59:08;25.88;;;19.40;;
64601;SDS011;68371;42.630;23.192;2023-07-31T04:01:34;25.55;;;19.05;;
64601;SDS011;68371;42.630;23.192;2023-07-31T04:04:01;26.98;;;19.80;;
64601;SDS011;68371;42.630;23.192;2023-07-31T04:06:28;26.80;;;18.60;;
64601;SDS011;68371;42.630;23.192;2023-07-31T04:08:54;26.48;;;19.65;;
64601;SDS011;68371;42.630;23.192;2023-07-31T04:11:21;28.77;;;18.65;;
64601;SDS011;68371;42.630;23.192;2023-07-31T04:13:48;27.48;;;18.98;;
64601;SDS011;68371;42.630;23.192;2023-07-31T04:16:16;27.48;;;20.00;;
64601;SDS011;68371;42.630;23.192;2023-07-31T04:18:42;30.38;;;20.70;;
64601;SDS011;68371;42.630;23.192;2023-07-31T04:21:09;25.80;;;19.67;;
64601;SDS011;68371;42.630;23.192;2023-07-31T04:23:36;28.25;;;20.38;;
64601;SDS011;68371;42.630;23.192;2023-07-31T04:26:03;31.20;;;21.65;;
64601;SDS011;68371;42.630;23.192;2023-07-31T04:28:29;27.60;;;19.92;;
64601;SDS011;68371;42.630;23.192;2023-07-31T04:30:56;29.75;;;20.67;;
64601;SDS011;68371;42.630;23.192;2023-07-31T04:33:25;31.60;;;20.83;;
64601;SDS011;68371;42.630;23.192;2023-07-31T04:35:52;27.98;;;19.50;;
64601;SDS011;68371;42.630;23.192;2023-07-31T04:38:19;23.48;;;18.00;;
64601;SDS011;68371;42.630;23.192;2023-07-31T04:40:46;24.83;;;17.38;;
64601;SDS011;68371;42.630;23.192;2023-07-31T04:43:13;31.00;;;19.50;;
64601;SDS011;68371;42.630;23.192;2023-07-31T04:45:42;23.35;;;17.92;;
64601;SDS011;68371;42.630;23.192;2023-07-31T04:48:09;24.63;;;17.63;;
64601;SDS011;68371;42.630;23.192;2023-07-31T04:50:37;21.48;;;16.17;;
64601;SDS011;68371;42.630;23.192;2023-07-31T04:53:04;21.90;;;16.02;;
64601;SDS011;68371;42.630;23.192;2023-07-31T04:55:30;21.27;;;15.63;;
64601;SDS011;68371;42.630;23.192;2023-07-31T04:57:58;21.05;;;16.30;;
64601;SDS011;68371;42.630;23.192;2023-07-31T05:00:25;24.02;;;17.50;;
64601;SDS011;68371;42.630;23.192;2023-07-31T05:02:51;23.55;;;17.23;;
64601;SDS011;68371;42.630;23.192;2023-07-31T05:05:18;25.80;;;17.65;;
64601;SDS011;68371;42.630;23.192;2023-07-31T05:07:46;23.38;;;17.38;;
64601;SDS011;68371;42.630;23.192;2023-07-31T05:10:13;22.38;;;16.13;;
64601;SDS011;68371;42.630;23.192;2023-07-31T05:12:39;23.83;;;15.80;;
64601;SDS011;68371;42.630;23.192;2023-07-31T05:15:07;21.98;;;15.48;;
64601;SDS011;68371;42.630;23.192;2023-07-31T05:17:35;17.20;;;14.13;;
64601;SDS011;68371;42.630;23.192;2023-07-31T05:20:01;19.20;;;14.15;;
64601;SDS011;68371;42.630;23.192;2023-07-31T05:22:28;16.15;;;12.32;;
64601;SDS011;68371;42.630;23.192;2023-07-31T05:24:56;17.52;;;13.35;;
64601;SDS011;68371;42.630;23.192;2023-07-31T05:27:23;16.98;;;12.98;;
64601;SDS011;68371;42.630;23.192;2023-07-31T05:29:50;13.25;;;11.35;;
64601;SDS011;68371;42.630;23.192;2023-07-31T05:32:16;13.88;;;10.90;;
64601;SDS011;68371;42.630;23.192;2023-07-31T05:34:43;13.55;;;11.13;;
64601;SDS011;68371;42.630;23.192;2023-07-31T05:37:10;13.15;;;11.10;;
64601;SDS011;68371;42.630;23.192;2023-07-31T05:39:37;16.55;;;10.82;;
64601;SDS011;68371;42.630;23.192;2023-07-31T05:42:05;11.82;;;9.75;;
64601;SDS011;68371;42.630;23.192;2023-07-31T05:44:32;12.32;;;9.95;;
64601;SDS011;68371;42.630;23.192;2023-07-31T05:46:59;12.18;;;10.05;;
64601;SDS011;68371;42.630;23.192;2023-07-31T05:49:25;12.65;;;9.50;;
64601;SDS011;68371;42.630;23.192;2023-07-31T05:51:52;11.55;;;9.43;;
64601;SDS011;68371;42.630;23.192;2023-07-31T05:54:19;14.35;;;8.25;;
64601;SDS011;68371;42.630;23.192;2023-07-31T05:56:45;9.63;;;7.38;;
64601;SDS011;68371;42.630;23.192;2023-07-31T05:59:16;9.80;;;8.15;;
64601;SDS011;68371;42.630;23.192;2023-07-31T06:01:43;15.80;;;8.80;;
64601;SDS011;68371;42.630;23.192;2023-07-31T06:04:10;10.52;;;8.38;;
64601;SDS011;68371;42.630;23.192;2023-07-31T06:06:36;11.88;;;8.40;;
64601;SDS011;68371;42.630;23.192;2023-07-31T06:09:03;8.75;;;5.95;;
64601;SDS011;68371;42.630;23.192;2023-07-31T06:11:30;5.93;;;5.32;;
64601;SDS011;68371;42.630;23.192;2023-07-31T06:13:57;6.18;;;5.35;;
64601;SDS011;68371;42.630;23.192;2023-07-31T06:16:25;5.93;;;4.75;;
64601;SDS011;68371;42.630;23.192;2023-07-31T06:18:52;6.57;;;4.63;;
64601;SDS011;68371;42.630;23.192;2023-07-31T06:21:19;5.75;;;4.53;;
64601;SDS011;68371;42.630;23.192;2023-07-31T06:23:46;7.00;;;5.13;;
64601;SDS011;68371;42.630;23.192;2023-07-31T06:26:12;6.43;;;4.72;;
64601;SDS011;68371;42.630;23.192;2023-07-31T06:28:39;6.60;;;5.03;;
64601;SDS011;68371;42.630;23.192;2023-07-31T06:31:06;6.53;;;5.38;;
64601;SDS011;68371;42.630;23.192;2023-07-31T06:33:34;7.10;;;5.20;;
64601;SDS011;68371;42.630;23.192;2023-07-31T06:36:01;9.70;;;5.97;;
64601;SDS011;68371;42.630;23.192;2023-07-31T06:38:27;7.55;;;5.50;;
64601;SDS011;68371;42.630;23.192;2023-07-31T06:40:54;6.15;;;5.22;;
64601;SDS011;68371;42.630;23.192;2023-07-31T06:43:21;7.30;;;5.78;;
64601;SDS011;68371;42.630;23.192;2023-07-31T06:45:47;8.75;;;5.55;;
64601;SDS011;68371;42.630;23.192;2023-07-31T06:48:16;6.22;;;5.25;;
64601;SDS011;68371;42.630;23.192;2023-07-31T06:50:45;6.80;;;4.82;;
64601;SDS011;68371;42.630;23.192;2023-07-31T06:53:12;5.50;;;4.50;;
64601;SDS011;68371;42.630;23.192;2023-07-31T06:55:39;4.65;;;3.95;;
64601;SDS011;68371;42.630;23.192;2023-07-31T06:58:06;4.13;;;3.33;;
64601;SDS011;68371;42.630;23.192;2023-07-31T07:00:32;4.43;;;2.88;;
64601;SDS011;68371;42.630;23.192;2023-07-31T07:02:59;4.18;;;2.72;;
64601;SDS011;68371;42.630;23.192;2023-07-31T07:05:26;4.13;;;2.80;;
64601;SDS011;68371;42.630;23.192;2023-07-31T07:07:54;2.65;;;2.10;;
64601;SDS011;68371;42.630;23.192;2023-07-31T07:10:21;2.83;;;2.35;;
64601;SDS011;68371;42.630;23.192;2023-07-31T07:12:47;3.30;;;2.30;;
64601;SDS011;68371;42.630;23.192;2023-07-31T07:15:15;5.57;;;2.30;;
64601;SDS011;68371;42.630;23.192;2023-07-31T07:17:42;4.88;;;2.22;;
64601;SDS011;68371;42.630;23.192;2023-07-31T07:20:08;2.55;;;2.00;;
64601;SDS011;68371;42.630;23.192;2023-07-31T07:22:35;2.42;;;2.00;;
64601;SDS011;68371;42.630;23.192;2023-07-31T07:25:04;3.20;;;2.30;;
64601;SDS011;68371;42.630;23.192;2023-07-31T07:27:32;2.70;;;2.10;;
64601;SDS011;68371;42.630;23.192;2023-07-31T07:29:59;2.60;;;2.08;;
64601;SDS011;68371;42.630;23.192;2023-07-31T07:32:25;2.92;;;2.08;;
64601;SDS011;68371;42.630;23.192;2023-07-31T07:34:52;2.70;;;2.17;;
64601;SDS011;68371;42.630;23.192;2023-07-31T07:37:20;3.03;;;1.95;;
64601;SDS011;68371;42.630;23.192;2023-07-31T07:39:46;2.80;;;2.10;;
64601;SDS011;68371;42.630;23.192;2023-07-31T07:42:14;4.13;;;2.30;;
64601;SDS011;68371;42.630;23.192;2023-07-31T07:44:41;3.58;;;2.00;;
64601;SDS011;68371;42.630;23.192;2023-07-31T07:47:08;2.80;;;2.20;;
64601;SDS011;68371;42.630;23.192;2023-07-31T07:49:35;2.90;;;2.10;;
64601;SDS011;68371;42.630;23.192;2023-07-31T07:52:02;2.17;;;1.85;;
64601;SDS011;68371;42.630;23.192;2023-07-31T07:54:29;2.45;;;2.05;;
64601;SDS011;68371;42.630;23.192;2023-07-31T07:56:56;2.78;;;1.95;;
64601;SDS011;68371;42.630;23.192;2023-07-31T07:59:24;2.85;;;1.75;;
64601;SDS011;68371;42.630;23.192;2023-07-31T08:01:51;3.35;;;1.80;;
64601;SDS011;68371;42.630;23.192;2023-07-31T08:04:18;3.83;;;1.80;;
64601;SDS011;68371;42.630;23.192;2023-07-31T08:06:45;2.75;;;2.08;;
64601;SDS011;68371;42.630;23.192;2023-07-31T08:09:11;4.15;;;2.10;;
64601;SDS011;68371;42.630;23.192;2023-07-31T08:11:38;2.88;;;2.00;;
64601;SDS011;68371;42.630;23.192;2023-07-31T08:14:05;3.60;;;2.08;;
64601;SDS011;68371;42.630;23.192;2023-07-31T08:16:33;3.00;;;1.98;;
64601;SDS011;68371;42.630;23.192;2023-07-31T08:18:59;2.47;;;1.63;;
64601;SDS011;68371;42.630;23.192;2023-07-31T08:21:26;2.28;;;1.70;;
64601;SDS011;68371;42.630;23.192;2023-07-31T08:45:44;5.32;;;1.70;;
64601;SDS011;68371;42.630;23.192;2023-07-31T08:48:11;2.70;;;2.03;;
64601;SDS011;68371;42.630;23.192;2023-07-31T08:50:38;4.15;;;2.03;;
64601;SDS011;68371;42.630;23.192;2023-07-31T08:53:05;2.10;;;1.70;;
64601;SDS011;68371;42.630;23.192;2023-07-31T08:55:32;3.03;;;1.80;;
64601;SDS011;68371;42.630;23.192;2023-07-31T08:57:59;2.40;;;1.80;;
64601;SDS011;68371;42.630;23.192;2023-07-31T09:00:29;2.33;;;1.77;;
64601;SDS011;68371;42.630;23.192;2023-07-31T09:03:01;3.28;;;2.03;;
64601;SDS011;68371;42.630;23.192;2023-07-31T09:05:30;2.00;;;1.70;;
64601;SDS011;68371;42.630;23.192;2023-07-31T09:07:58;2.60;;;1.90;;
64601;SDS011;68371;42.630;23.192;2023-07-31T09:10:29;4.15;;;1.80;;
64601;SDS011;68371;42.630;23.192;2023-07-31T09:12:55;2.53;;;1.88;;
64601;SDS011;68371;42.630;23.192;2023-07-31T09:15:24;3.15;;;2.20;;
64601;SDS011;68371;42.630;23.192;2023-07-31T09:17:58;2.72;;;1.90;;
64601;SDS011;68371;42.630;23.192;2023-07-31T09:20:27;3.63;;;2.03;;
64601;SDS011;68371;42.630;23.192;2023-07-31T09:22:55;2.92;;;2.03;;
64601;SDS011;68371;42.630;23.192;2023-07-31T09:25:23;3.08;;;2.25;;
64601;SDS011;68371;42.630;23.192;2023-07-31T09:58:55;3.25;;;2.15;;
64601;SDS011;68371;42.630;23.192;2023-07-31T10:01:22;3.60;;;2.25;;
64601;SDS011;68371;42.630;23.192;2023-07-31T10:03:49;2.60;;;2.00;;
64601;SDS011;68371;42.630;23.192;2023-07-31T10:06:16;3.58;;;1.90;;
64601;SDS011;68371;42.630;23.192;2023-07-31T10:08:44;2.25;;;1.80;;
64601;SDS011;68371;42.630;23.192;2023-07-31T10:11:13;3.17;;;1.90;;
64601;SDS011;68371;42.630;23.192;2023-07-31T10:13:42;2.70;;;1.83;;
64601;SDS011;68371;42.630;23.192;2023-07-31T10:16:14;3.35;;;1.75;;
64601;SDS011;68371;42.630;23.192;2023-07-31T10:18:43;3.05;;;1.85;;
64601;SDS011;68371;42.630;23.192;2023-07-31T10:21:11;2.72;;;1.67;;
64601;SDS011;68371;42.630;23.192;2023-07-31T10:23:38;2.33;;;1.83;;
64601;SDS011;68371;42.630;23.192;2023-07-31T10:26:05;1.98;;;1.40;;
64601;SDS011;68371;42.630;23.192;2023-07-31T10:28:34;1.80;;;1.45;;
64601;SDS011;68371;42.630;23.192;2023-07-31T10:31:02;2.40;;;1.60;;
64601;SDS011;68371;42.630;23.192;2023-07-31T10:33:31;3.42;;;1.90;;
64601;SDS011;68371;42.630;23.192;2023-07-31T10:36:14;5.63;;;1.80;;
64601;SDS011;68371;42.630;23.192;2023-07-31T10:38:43;2.42;;;1.80;;
64601;SDS011;68371;42.630;23.192;2023-07-31T10:41:10;2.28;;;1.60;;
64601;SDS011;68371;42.630;23.192;2023-07-31T10:43:37;2.65;;;1.73;;
64601;SDS011;68371;42.630;23.192;2023-07-31T10:46:07;2.53;;;1.67;;
64601;SDS011;68371;42.630;23.192;2023-07-31T10:48:36;2.05;;;1.50;;
64601;SDS011;68371;42.630;23.192;2023-07-31T10:51:06;2.67;;;1.90;;
64601;SDS011;68371;42.630;23.192;2023-07-31T10:53:35;1.73;;;1.50;;
64601;SDS011;68371;42.630;23.192;2023-07-31T10:56:02;2.08;;;1.60;;
64601;SDS011;68371;42.630;23.192;2023-07-31T10:58:31;3.10;;;1.50;;
64601;SDS011;68371;42.630;23.192;2023-07-31T11:00:59;2.40;;;1.60;;
64601;SDS011;68371;42.630;23.192;2023-07-31T11:03:40;1.65;;;1.33;;
64601;SDS011;68371;42.630;23.192;2023-07-31T11:06:07;1.90;;;1.50;;
64601;SDS011;68371;42.630;23.192;2023-07-31T11:08:35;2.00;;;1.50;;
64601;SDS011;68371;42.630;23.192;2023-07-31T11:11:07;2.22;;;1.65;;
64601;SDS011;68371;42.630;23.192;2023-07-31T11:13:39;2.47;;;1.50;;
64601;SDS011;68371;42.630;23.192;2023-07-31T11:16:07;2.08;;;1.40;;
64601;SDS011;68371;42.630;23.192;2023-07-31T11:18:34;3.78;;;1.30;;
64601;SDS011;68371;42.630;23.192;2023-07-31T11:21:02;1.98;;;1.48;;
64601;SDS011;68371;42.630;23.192;2023-07-31T11:23:29;3.35;;;1.40;;
64601;SDS011;68371;42.630;23.192;2023-07-31T11:25:58;1.73;;;1.27;;
64601;SDS011;68371;42.630;23.192;2023-07-31T11:28:25;2.15;;;1.60;;
64601;SDS011;68371;42.630;23.192;2023-07-31T11:30:52;3.97;;;1.60;;
64601;SDS011;68371;42.630;23.192;2023-07-31T11:33:22;3.93;;;1.80;;
64601;SDS011;68371;42.630;23.192;2023-07-31T11:35:49;1.92;;;1.40;;
64601;SDS011;68371;42.630;23.192;2023-07-31T11:38:28;2.53;;;2.05;;
64601;SDS011;68371;42.630;23.192;2023-07-31T11:40:57;3.42;;;1.60;;
64601;SDS011;68371;42.630;23.192;2023-07-31T11:43:25;2.33;;;1.60;;
64601;SDS011;68371;42.630;23.192;2023-07-31T11:45:54;3.80;;;1.90;;
64601;SDS011;68371;42.630;23.192;2023-07-31T11:48:23;1.98;;;1.63;;
64601;SDS011;68371;42.630;23.192;2023-07-31T11:50:54;3.22;;;1.75;;
64601;SDS011;68371;42.630;23.192;2023-07-31T11:53:25;3.13;;;1.88;;
64601;SDS011;68371;42.630;23.192;2023-07-31T11:55:57;2.28;;;1.98;;
64601;SDS011;68371;42.630;23.192;2023-07-31T11:58:25;7.93;;;2.65;;
64601;SDS011;68371;42.630;23.192;2023-07-31T12:00:54;4.55;;;2.10;;
64601;SDS011;68371;42.630;23.192;2023-07-31T12:03:22;2.85;;;2.00;;
64601;SDS011;68371;42.630;23.192;2023-07-31T12:05:52;2.63;;;1.90;;
64601;SDS011;68371;42.630;23.192;2023-07-31T12:08:21;3.77;;;2.07;;
64601;SDS011;68371;42.630;23.192;2023-07-31T12:10:52;3.33;;;2.38;;
64601;SDS011;68371;42.630;23.192;2023-07-31T12:13:28;2.65;;;2.45;;
64601;SDS011;68371;42.630;23.192;2023-07-31T12:15:58;2.55;;;2.20;;
64601;SDS011;68371;42.630;23.192;2023-07-31T12:18:28;4.38;;;2.70;;
64601;SDS011;68371;42.630;23.192;2023-07-31T12:20:56;4.63;;;3.00;;
64601;SDS011;68371;42.630;23.192;2023-07-31T12:23:27;3.67;;;3.22;;
64601;SDS011;68371;42.630;23.192;2023-07-31T12:26:01;3.20;;;2.78;;
64601;SDS011;68371;42.630;23.192;2023-07-31T12:28:28;4.00;;;3.53;;
64601;SDS011;68371;42.630;23.192;2023-07-31T12:30:56;4.40;;;3.85;;
64601;SDS011;68371;42.630;23.192;2023-07-31T12:33:30;4.38;;;3.80;;
64601;SDS011;68371;42.630;23.192;2023-07-31T12:35:59;4.38;;;3.97;;
64601;SDS011;68371;42.630;23.192;2023-07-31T12:38:28;4.47;;;4.07;;
64601;SDS011;68371;42.630;23.192;2023-07-31T12:40:56;4.38;;;3.97;;
64601;SDS011;68371;42.630;23.192;2023-07-31T12:43:23;4.60;;;4.20;;
64601;SDS011;68371;42.630;23.192;2023-07-31T12:45:53;5.20;;;4.00;;
64601;SDS011;68371;42.630;23.192;2023-07-31T12:50:49;4.05;;;3.65;;
64601;SDS011;68371;42.630;23.192;2023-07-31T12:53:15;4.00;;;3.60;;
64601;SDS011;68371;42.630;23.192;2023-07-31T12:55:44;4.05;;;3.35;;
64601;SDS011;68371;42.630;23.192;2023-07-31T12:58:10;3.53;;;3.22;;
64601;SDS011;68371;42.630;23.192;2023-07-31T13:00:37;4.40;;;4.00;;
64601;SDS011;68371;42.630;23.192;2023-07-31T13:03:04;5.00;;;4.60;;
64601;SDS011;68371;42.630;23.192;2023-07-31T13:05:33;8.25;;;4.63;;
64601;SDS011;68371;42.630;23.192;2023-07-31T13:08:00;7.50;;;5.40;;
64601;SDS011;68371;42.630;23.192;2023-07-31T13:10:28;7.03;;;5.00;;
64601;SDS011;68371;42.630;23.192;2023-07-31T13:12:58;5.38;;;4.75;;
64601;SDS011;68371;42.630;23.192;2023-07-31T13:15:24;5.17;;;4.50;;
64601;SDS011;68371;42.630;23.192;2023-07-31T13:17:53;4.60;;;4.10;;
64601;SDS011;68371;42.630;23.192;2023-07-31T13:20:19;4.95;;;4.45;;
64601;SDS011;68371;42.630;23.192;2023-07-31T13:22:46;4.70;;;4.30;;
64601;SDS011;68371;42.630;23.192;2023-07-31T13:25:13;5.88;;;4.38;;
64601;SDS011;68371;42.630;23.192;2023-07-31T13:27:42;6.13;;;4.27;;
64601;SDS011;68371;42.630;23.192;2023-07-31T13:30:11;4.70;;;4.30;;
64601;SDS011;68371;42.630;23.192;2023-07-31T13:32:37;4.82;;;4.43;;
64601;SDS011;68371;42.630;23.192;2023-07-31T13:35:05;8.13;;;4.53;;
64601;SDS011;68371;42.630;23.192;2023-07-31T13:37:32;4.40;;;4.00;;
64601;SDS011;68371;42.630;23.192;2023-07-31T13:39:59;8.10;;;4.20;;
64601;SDS011;68371;42.630;23.192;2023-07-31T13:42:26;5.20;;;4.05;;
64601;SDS011;68371;42.630;23.192;2023-07-31T13:44:56;5.32;;;3.80;;
64601;SDS011;68371;42.630;23.192;2023-07-31T13:47:26;8.65;;;4.10;;
64601;SDS011;68371;42.630;23.192;2023-07-31T13:49:52;5.72;;;4.07;;
64601;SDS011;68371;42.630;23.192;2023-07-31T13:52:19;5.03;;;3.85;;
64601;SDS011;68371;42.630;23.192;2023-07-31T13:54:46;4.22;;;3.63;;
64601;SDS011;68371;42.630;23.192;2023-07-31T13:57:12;5.63;;;3.75;;
64601;SDS011;68371;42.630;23.192;2023-07-31T13:59:39;4.95;;;3.70;;
64601;SDS011;68371;42.630;23.192;2023-07-31T14:02:06;4.18;;;3.78;;
64601;SDS011;68371;42.630;23.192;2023-07-31T14:04:34;4.72;;;3.70;;
64601;SDS011;68371;42.630;23.192;2023-07-31T14:07:01;4.38;;;3.60;;
64601;SDS011;68371;42.630;23.192;2023-07-31T14:09:28;3.25;;;2.92;;
64601;SDS011;68371;42.630;23.192;2023-07-31T14:11:56;4.85;;;3.05;;
64601;SDS011;68371;42.630;23.192;2023-07-31T14:14:22;3.33;;;2.67;;
64601;SDS011;68371;42.630;23.192;2023-07-31T14:16:49;3.25;;;2.95;;
64601;SDS011;68371;42.630;23.192;2023-07-31T14:19:16;3.17;;;2.88;;
64601;SDS011;68371;42.630;23.192;2023-07-31T14:21:44;4.75;;;2.80;;
64601;SDS011;68371;42.630;23.192;2023-07-31T14:24:10;2.97;;;2.58;;
64601;SDS011;68371;42.630;23.192;2023-07-31T14:26:37;4.20;;;2.58;;
64601;SDS011;68371;42.630;23.192;2023-07-31T14:29:04;3.10;;;2.50;;
64601;SDS011;68371;42.630;23.192;2023-07-31T14:31:32;2.80;;;2.50;;
64601;SDS011;68371;42.630;23.192;2023-07-31T14:33:58;3.20;;;2.53;;
64601;SDS011;68371;42.630;23.192;2023-07-31T14:36:27;4.07;;;2.63;;
64601;SDS011;68371;42.630;23.192;2023-07-31T14:38:55;3.70;;;2.45;;
64601;SDS011;68371;42.630;23.192;2023-07-31T14:41:22;3.97;;;2.65;;
64601;SDS011;68371;42.630;23.192;2023-07-31T14:43:48;4.30;;;3.00;;
64601;SDS011;68371;42.630;23.192;2023-07-31T14:46:15;3.70;;;2.55;;
64601;SDS011;68371;42.630;23.192;2023-07-31T14:48:42;4.97;;;2.72;;
64601;SDS011;68371;42.630;23.192;2023-07-31T14:51:08;5.53;;;2.60;;
64601;SDS011;68371;42.630;23.192;2023-07-31T14:53:35;3.50;;;2.70;;
64601;SDS011;68371;42.630;23.192;2023-07-31T14:56:04;3.28;;;2.70;;
64601;SDS011;68371;42.630;23.192;2023-07-31T14:58:31;3.28;;;2.53;;
64601;SDS011;68371;42.630;23.192;2023-07-31T15:01:00;2.63;;;2.42;;
64601;SDS011;68371;42.630;23.192;2023-07-31T15:03:28;3.15;;;2.40;;
64601;SDS011;68371;42.630;23.192;2023-07-31T15:05:55;5.63;;;2.72;;
64601;SDS011;68371;42.630;23.192;2023-07-31T15:08:22;2.63;;;2.42;;
64601;SDS011;68371;42.630;23.192;2023-07-31T15:10:48;2.83;;;2.40;;
64601;SDS011;68371;42.630;23.192;2023-07-31T15:13:17;3.80;;;2.20;;
64601;SDS011;68371;42.630;23.192;2023-07-31T15:15:43;2.72;;;2.30;;
64601;SDS011;68371;42.630;23.192;2023-07-31T15:18:10;4.53;;;2.70;;
64601;SDS011;68371;42.630;23.192;2023-07-31T15:20:37;2.88;;;2.33;;
64601;SDS011;68371;42.630;23.192;2023-07-31T15:23:04;3.80;;;2.88;;
64601;SDS011;68371;42.630;23.192;2023-07-31T15:25:31;13.38;;;3.63;;